createdAt,value
2022-09-30T00:00:22.436Z,999.9
2022-09-30T00:03:22.522Z,999.9
2022-09-30T00:06:22.473Z,999.9
2022-09-30T00:09:22.854Z,1000
2022-09-30T00:12:22.440Z,1000
2022-09-30T00:15:22.439Z,1000
2022-09-30T00:18:22.455Z,1000.1
2022-09-30T00:21:22.443Z,1000
2022-09-30T00:24:22.480Z,1000.1
2022-09-30T00:27:22.461Z,1000.1
2022-09-30T00:30:22.473Z,1000.1
2022-09-30T00:33:22.470Z,1000.1
2022-09-30T00:36:22.467Z,1000.1
2022-09-30T00:39:22.532Z,1000
2022-09-30T00:42:22.487Z,1000
2022-09-30T00:45:22.466Z,1000
2022-09-30T00:48:22.478Z,999.9
2022-09-30T00:51:22.468Z,1000
2022-09-30T00:54:22.480Z,999.9
2022-09-30T00:57:22.476Z,999.9
2022-09-30T01:00:22.576Z,1000
2022-09-30T01:03:22.501Z,1000
2022-09-30T01:06:22.478Z,1000
2022-09-30T01:09:22.645Z,1000
2022-09-30T01:12:22.473Z,1000.1
2022-09-30T01:15:22.474Z,1000
2022-09-30T01:18:22.519Z,1000.1
2022-09-30T01:21:22.492Z,1000.1
2022-09-30T01:24:22.486Z,1000.1
2022-09-30T01:27:22.483Z,1000.1
2022-09-30T01:30:22.483Z,1000.1
2022-09-30T01:33:22.497Z,1000.1
2022-09-30T01:36:22.515Z,1000
2022-09-30T01:39:22.697Z,1000.1
2022-09-30T01:42:22.490Z,1000.2
2022-09-30T01:45:22.496Z,1000.2
2022-09-30T01:48:22.515Z,1000.2
2022-09-30T01:51:22.509Z,1000.2
2022-09-30T01:54:22.639Z,1000.2
2022-09-30T01:57:22.511Z,1000.2
2022-09-30T02:00:22.505Z,1000.2
2022-09-30T02:03:22.523Z,1000.2
2022-09-30T02:06:22.516Z,1000.2
2022-09-30T02:09:22.645Z,1000.4
2022-09-30T02:12:22.534Z,1000.3
2022-09-30T02:15:22.525Z,1000.4
2022-09-30T02:18:22.526Z,1000.3
2022-09-30T02:21:22.516Z,1000.4
2022-09-30T02:24:22.516Z,1000.4
2022-09-30T02:27:22.521Z,1000.4
2022-09-30T02:30:22.543Z,1000.4
2022-09-30T02:33:22.539Z,1000.3
2022-09-30T02:36:22.527Z,1000.3
2022-09-30T02:39:22.669Z,1000.3
2022-09-30T02:42:22.526Z,1000.3
2022-09-30T02:45:22.526Z,1000.4
2022-09-30T02:48:22.613Z,1000.3
2022-09-30T02:51:22.524Z,1000.4
2022-09-30T02:54:22.526Z,1000.3
2022-09-30T02:57:22.535Z,1000.3
2022-09-30T03:00:22.535Z,1000.2
2022-09-30T03:03:22.549Z,1000.4
2022-09-30T03:06:22.564Z,1000.4
2022-09-30T03:09:22.691Z,1000.4
2022-09-30T03:12:22.552Z,1000.5
2022-09-30T03:15:22.556Z,1000.5
2022-09-30T03:18:22.587Z,1000.5
2022-09-30T03:21:22.562Z,1000.5
2022-09-30T03:24:22.594Z,1000.6
2022-09-30T03:27:22.565Z,1000.7
2022-09-30T03:30:24.605Z,1000.7
2022-09-30T03:33:22.582Z,1000.7
2022-09-30T03:36:22.574Z,1000.6
2022-09-30T03:39:22.616Z,1000.8
2022-09-30T03:42:23.138Z,1000.7
2022-09-30T03:45:22.584Z,1000.8
2022-09-30T03:48:22.586Z,1000.8
2022-09-30T03:51:22.585Z,1000.7
2022-09-30T03:54:22.583Z,1000.8
2022-09-30T03:57:22.593Z,1000.9
2022-09-30T04:00:22.618Z,1000.9
2022-09-30T04:03:22.606Z,1000.9
2022-09-30T04:06:22.600Z,1000.9
2022-09-30T04:09:22.899Z,1001.1
2022-09-30T04:12:22.603Z,1001.1
2022-09-30T04:15:22.603Z,1001.1
2022-09-30T04:18:22.652Z,1001.1
2022-09-30T04:21:22.616Z,1001
2022-09-30T04:24:22.613Z,1001.1
2022-09-30T04:27:22.614Z,1001.1
2022-09-30T04:30:25.758Z,1001.2
2022-09-30T04:33:22.623Z,1001.2
2022-09-30T04:36:22.638Z,1001.2
2022-09-30T04:39:22.690Z,1001.2
2022-09-30T04:42:22.630Z,1001.3
2022-09-30T04:45:22.629Z,1001.3
2022-09-30T04:48:22.643Z,1001.3
2022-09-30T04:51:22.628Z,1001.3
2022-09-30T04:54:22.774Z,1001.4
2022-09-30T04:57:22.639Z,1001.5
2022-09-30T05:00:22.633Z,1001.5
2022-09-30T05:03:22.653Z,1001.7
2022-09-30T05:06:22.641Z,1001.5
2022-09-30T05:09:22.888Z,1001.5
2022-09-30T05:12:22.667Z,1001.7
2022-09-30T05:15:22.649Z,1001.7
2022-09-30T05:18:22.662Z,1001.8
2022-09-30T05:21:22.653Z,1001.8
2022-09-30T05:24:22.655Z,1001.8
2022-09-30T05:27:22.662Z,1001.8
2022-09-30T05:30:22.694Z,1001.8
2022-09-30T05:33:22.952Z,1001.8
2022-09-30T05:36:22.675Z,1001.8
2022-09-30T05:39:22.804Z,1001.9
2022-09-30T05:42:22.684Z,1001.9
2022-09-30T05:45:22.692Z,1001.9
2022-09-30T05:48:22.726Z,1002.1
2022-09-30T05:51:22.693Z,1002.1
2022-09-30T05:54:22.700Z,1002.2
2022-09-30T05:57:22.701Z,1002.2
2022-09-30T06:00:22.703Z,1002
2022-09-30T06:03:22.734Z,1002.1
2022-09-30T06:06:22.849Z,1002.2
2022-09-30T06:09:22.993Z,1002.2
2022-09-30T06:12:22.719Z,1002.2
2022-09-30T06:15:22.719Z,1002.3
2022-09-30T06:18:22.737Z,1002.2
2022-09-30T06:21:22.741Z,1002.1
2022-09-30T06:24:22.756Z,1002.2
2022-09-30T06:27:22.751Z,1002.2
2022-09-30T06:30:22.749Z,1002.2
2022-09-30T06:33:22.751Z,1002.3
2022-09-30T06:36:22.746Z,1002.4
2022-09-30T06:39:22.779Z,1002.5
2022-09-30T06:42:22.781Z,1002.5
2022-09-30T06:45:30.820Z,1002.5
2022-09-30T06:48:33.526Z,1002.4
2022-09-30T06:51:22.777Z,1002.5
2022-09-30T06:54:22.772Z,1002.6
2022-09-30T06:57:22.786Z,1002.6
2022-09-30T07:00:22.839Z,1002.5
2022-09-30T07:03:22.799Z,1002.6
2022-09-30T07:06:22.799Z,1002.6
2022-09-30T07:09:22.996Z,1002.6
2022-09-30T07:12:22.809Z,1002.6
2022-09-30T07:15:22.817Z,1002.7
2022-09-30T07:18:22.882Z,1002.7
2022-09-30T07:21:22.830Z,1002.7
2022-09-30T07:24:22.829Z,1002.7
2022-09-30T07:27:22.830Z,1002.7
2022-09-30T07:30:26.925Z,1002.7
2022-09-30T07:33:22.848Z,1002.6
2022-09-30T07:36:22.864Z,1002.7
2022-09-30T07:39:22.943Z,1002.7
2022-09-30T07:42:23.157Z,1002.8
2022-09-30T07:45:22.861Z,1002.8
2022-09-30T07:48:22.872Z,1002.8
2022-09-30T07:51:22.858Z,1002.8
2022-09-30T07:54:22.883Z,1002.9
2022-09-30T07:57:22.866Z,1002.9
2022-09-30T08:00:41.414Z,1002.9
2022-09-30T08:03:22.906Z,1003
2022-09-30T08:06:22.892Z,1003
2022-09-30T08:09:23.017Z,1002.9
2022-09-30T08:12:22.982Z,1002.9
2022-09-30T08:15:22.899Z,1003
2022-09-30T08:18:22.925Z,1002.9
2022-09-30T08:21:22.962Z,1003
2022-09-30T08:24:23.094Z,1002.9
2022-09-30T08:27:22.989Z,1003
2022-09-30T08:30:22.947Z,1002.9
2022-09-30T08:33:22.953Z,1003
2022-09-30T08:36:22.927Z,1003
2022-09-30T08:39:22.935Z,1003.1
2022-09-30T08:42:36.467Z,1003.1
2022-09-30T08:45:22.939Z,1003.2
2022-09-30T08:48:22.982Z,1003.2
2022-09-30T08:51:22.951Z,1003.2
2022-09-30T08:54:22.951Z,1003.2
2022-09-30T08:57:22.953Z,1003.2
2022-09-30T09:00:22.975Z,1003.2
2022-09-30T09:03:22.994Z,1003.3
2022-09-30T09:06:23.021Z,1003.2
2022-09-30T09:09:23.010Z,1003.2
2022-09-30T09:12:22.999Z,1003.3
2022-09-30T09:15:22.997Z,1003.3
2022-09-30T09:18:24.554Z,1003.3
2022-09-30T09:21:23.010Z,1003.3
2022-09-30T09:24:23.040Z,1003.3
2022-09-30T09:27:23.037Z,1003.3
2022-09-30T09:30:23.023Z,1003.3
2022-09-30T09:33:23.033Z,1003.3
2022-09-30T09:36:23.019Z,1003.3
2022-09-30T09:39:23.070Z,1003.2
2022-09-30T09:42:23.057Z,1003.2
2022-09-30T09:45:23.041Z,1003.2
2022-09-30T09:48:23.138Z,1003.2
2022-09-30T09:51:23.138Z,1003
2022-09-30T09:54:23.230Z,1003.1
2022-09-30T09:57:23.054Z,1003.1
2022-09-30T10:00:23.085Z,1003.1
2022-09-30T10:03:23.077Z,1003.1
2022-09-30T10:06:23.067Z,1003
2022-09-30T10:09:23.190Z,1003
2022-09-30T10:12:23.079Z,1003
2022-09-30T10:15:23.128Z,1003.1
2022-09-30T10:18:23.215Z,1003
2022-09-30T10:21:23.094Z,1003.1
2022-09-30T10:24:23.167Z,1003
2022-09-30T10:27:23.094Z,1003
2022-09-30T10:30:23.111Z,1003.1
2022-09-30T10:33:23.145Z,1003.1
2022-09-30T10:36:23.137Z,1003.1
2022-09-30T10:39:23.124Z,1003.1
2022-09-30T10:42:26.198Z,1003
2022-09-30T10:45:23.139Z,1003.1
2022-09-30T10:48:23.153Z,1003
2022-09-30T10:51:23.345Z,1003
2022-09-30T10:54:23.172Z,1003.1
2022-09-30T10:57:23.160Z,1003
2022-09-30T11:00:23.174Z,1003
2022-09-30T11:03:23.256Z,1003
2022-09-30T11:06:23.177Z,1003.1
2022-09-30T11:09:23.182Z,1003.1
2022-09-30T11:12:23.219Z,1003
2022-09-30T11:15:23.200Z,1003
2022-09-30T11:18:23.205Z,1003
2022-09-30T11:21:23.219Z,1002.9
2022-09-30T11:24:23.221Z,1002.9
2022-09-30T11:27:23.224Z,1003
2022-09-30T11:30:23.265Z,1002.8
2022-09-30T11:33:23.244Z,1002.9
2022-09-30T11:36:23.246Z,1002.9
2022-09-30T11:39:23.254Z,1002.9
2022-09-30T11:42:23.245Z,1002.9
2022-09-30T11:45:23.304Z,1002.9
2022-09-30T11:48:23.310Z,1002.9
2022-09-30T11:51:23.277Z,1002.9
2022-09-30T11:54:23.273Z,1002.9
2022-09-30T11:57:23.288Z,1003
2022-09-30T12:00:23.293Z,1002.9
2022-09-30T12:03:23.370Z,1002.9
2022-09-30T12:06:23.331Z,1003
2022-09-30T12:09:23.336Z,1003
2022-09-30T12:12:23.312Z,1003
2022-09-30T12:15:23.332Z,1003
2022-09-30T12:18:23.333Z,1003
2022-09-30T12:21:23.332Z,1003
2022-09-30T12:24:23.370Z,1002.9
2022-09-30T12:27:23.350Z,1003
2022-09-30T12:30:23.350Z,1002.9
2022-09-30T12:33:23.370Z,1002.9
2022-09-30T12:36:23.361Z,1003
2022-09-30T12:39:23.378Z,1002.9
2022-09-30T12:42:23.405Z,1003
2022-09-30T12:45:23.383Z,1003
2022-09-30T12:48:23.405Z,1002.9
2022-09-30T12:51:23.400Z,1002.8
2022-09-30T12:54:23.424Z,1002.9
2022-09-30T12:57:23.417Z,1002.9
2022-09-30T13:00:23.446Z,1002.9
2022-09-30T13:03:23.441Z,1002.8
2022-09-30T13:06:23.454Z,1002.8
2022-09-30T13:09:23.440Z,1002.8
2022-09-30T13:12:23.450Z,1002.7
2022-09-30T13:15:23.461Z,1002.8
2022-09-30T13:18:23.497Z,1002.8
2022-09-30T13:21:23.475Z,1002.8
2022-09-30T13:24:23.485Z,1002.7
2022-09-30T13:27:23.493Z,1002.8
2022-09-30T13:30:23.498Z,1002.7
2022-09-30T13:33:23.516Z,1002.7
2022-09-30T13:36:23.568Z,1002.7
2022-09-30T13:39:23.514Z,1002.7
2022-09-30T13:42:23.527Z,1002.7
2022-09-30T13:45:23.558Z,1002.7
2022-09-30T13:48:23.556Z,1002.7
2022-09-30T13:51:23.550Z,1002.6
2022-09-30T13:54:23.598Z,1002.6
2022-09-30T13:57:23.572Z,1002.6
2022-09-30T14:00:23.582Z,1002.6
2022-09-30T14:03:23.641Z,1002.5
2022-09-30T14:06:23.599Z,1002.6
2022-09-30T14:09:23.606Z,1002.6
2022-09-30T14:12:23.637Z,1002.5
2022-09-30T14:15:23.624Z,1002.5
2022-09-30T14:18:23.639Z,1002.5
2022-09-30T14:21:23.636Z,1002.6
2022-09-30T14:24:23.646Z,1002.5
2022-09-30T14:27:23.646Z,1002.5
2022-09-30T14:30:23.680Z,1002.5
2022-09-30T14:33:23.671Z,1002.5
2022-09-30T14:36:23.672Z,1002.5
2022-09-30T14:39:23.684Z,1002.5
2022-09-30T14:42:23.694Z,1002.4
2022-09-30T14:45:23.787Z,1002.5
2022-09-30T14:48:23.747Z,1002.4
2022-09-30T14:51:24.028Z,1002.5
2022-09-30T14:54:23.729Z,1002.5
2022-09-30T14:57:23.735Z,1002.5
2022-09-30T15:00:23.744Z,1002.5
2022-09-30T15:03:23.825Z,1002.5
2022-09-30T15:06:23.779Z,1002.5
2022-09-30T15:09:23.766Z,1002.5
2022-09-30T15:12:23.768Z,1002.5
2022-09-30T15:15:23.776Z,1002.5
2022-09-30T15:18:23.796Z,1002.4
2022-09-30T15:21:23.791Z,1002.5
2022-09-30T15:24:23.818Z,1002.5
2022-09-30T15:27:23.808Z,1002.5
2022-09-30T15:30:23.812Z,1002.5
2022-09-30T15:33:23.841Z,1002.5
2022-09-30T15:36:23.825Z,1002.5
2022-09-30T15:39:23.838Z,1002.5
2022-09-30T15:42:23.863Z,1002.5
2022-09-30T15:45:23.933Z,1002.4
2022-09-30T15:48:23.860Z,1002.5
2022-09-30T15:51:23.858Z,1002.5
2022-09-30T15:54:23.869Z,1002.4
2022-09-30T15:57:23.875Z,1002.4
2022-09-30T16:00:23.902Z,1002.4
2022-09-30T16:03:23.978Z,1002.4
2022-09-30T16:06:23.889Z,1002.5
2022-09-30T16:09:23.893Z,1002.5
2022-09-30T16:12:23.899Z,1002.5
2022-09-30T16:15:23.907Z,1002.4
2022-09-30T16:18:23.943Z,1002.5
2022-09-30T16:21:23.904Z,1002.5
2022-09-30T16:24:23.919Z,1002.4
2022-09-30T16:27:23.923Z,1002.4
2022-09-30T16:30:23.933Z,1002.4
2022-09-30T16:33:23.940Z,1002.4
2022-09-30T16:36:23.964Z,1002.4
2022-09-30T16:39:23.937Z,1002.5
2022-09-30T16:42:23.941Z,1002.4
2022-09-30T16:45:23.984Z,1002.3
2022-09-30T16:48:24.017Z,1002.3
2022-09-30T16:51:23.949Z,1002.3
2022-09-30T16:54:23.982Z,1002.2
2022-09-30T16:57:23.953Z,1002.2
2022-09-30T17:00:23.953Z,1002.2
2022-09-30T17:03:23.989Z,1002.3
2022-09-30T17:06:23.952Z,1002.2
2022-09-30T17:09:23.957Z,1002.1
2022-09-30T17:12:23.984Z,1002.1
2022-09-30T17:15:23.970Z,1002.3
2022-09-30T17:18:23.977Z,1002.3
2022-09-30T17:21:23.968Z,1002.4
2022-09-30T17:24:23.971Z,1002.5
2022-09-30T17:27:23.977Z,1002.5
2022-09-30T17:30:24.012Z,1002.6
2022-09-30T17:33:24.011Z,1002.6
2022-09-30T17:36:24.006Z,1002.6
2022-09-30T17:39:24.019Z,1002.6
2022-09-30T17:42:24.026Z,1002.6
2022-09-30T17:45:24.084Z,1002.5
2022-09-30T17:48:24.085Z,1002.6
2022-09-30T17:51:24.064Z,1002.6
2022-09-30T17:54:24.101Z,1002.5
2022-09-30T17:57:24.234Z,1002.4
2022-09-30T18:00:24.100Z,1002.3
2022-09-30T18:03:24.108Z,1002.3
2022-09-30T18:06:24.144Z,1002.5
2022-09-30T18:09:24.132Z,1002.6
2022-09-30T18:12:24.147Z,1002.6
2022-09-30T18:15:24.157Z,1002.5
2022-09-30T18:18:24.174Z,1002.6
2022-09-30T18:21:24.174Z,1002.6
2022-09-30T18:24:24.209Z,1002.7
2022-09-30T18:27:24.204Z,1002.6
2022-09-30T18:30:24.218Z,1002.6
2022-09-30T18:33:24.239Z,1002.6
2022-09-30T18:36:24.229Z,1002.7
2022-09-30T18:39:24.239Z,1002.6
2022-09-30T18:42:24.370Z,1002.7
2022-09-30T18:45:24.330Z,1002.7
2022-09-30T18:48:24.283Z,1002.6
2022-09-30T18:51:24.291Z,1002.7
2022-09-30T18:54:24.298Z,1002.7
2022-09-30T18:57:24.312Z,1002.7
2022-09-30T19:00:24.350Z,1002.7
2022-09-30T19:03:24.343Z,1002.7
2022-09-30T19:06:24.354Z,1002.7
2022-09-30T19:09:24.364Z,1002.7
2022-09-30T19:12:24.373Z,1002.8
2022-09-30T19:15:24.384Z,1002.6
2022-09-30T19:18:24.482Z,1002.6
2022-09-30T19:21:24.406Z,1002.6
2022-09-30T19:24:27.444Z,1002.6
2022-09-30T19:27:24.429Z,1002.6
2022-09-30T19:30:24.447Z,1002.5
2022-09-30T19:33:24.470Z,1002.5
2022-09-30T19:36:24.498Z,1002.3
2022-09-30T19:39:25.840Z,1002.4
2022-09-30T19:42:24.510Z,1002.5
2022-09-30T19:45:26.013Z,1002.3
2022-09-30T19:48:24.555Z,1002.3
2022-09-30T19:51:24.544Z,1002.3
2022-09-30T19:54:35.785Z,1002.4
2022-09-30T19:57:24.569Z,1002.4
2022-09-30T20:00:24.586Z,1002.4
2022-09-30T20:03:24.607Z,1002.4
2022-09-30T20:06:24.613Z,1002.3
2022-09-30T20:09:24.621Z,1002.2
2022-09-30T20:12:24.677Z,1002.3
2022-09-30T20:15:24.648Z,1002.3
2022-09-30T20:18:24.674Z,1002.3
2022-09-30T20:21:24.675Z,1002.3
2022-09-30T20:24:24.693Z,1002.2
2022-09-30T20:27:24.703Z,1002.2
2022-09-30T20:30:24.751Z,1002.2
2022-09-30T20:33:24.744Z,1002.3
2022-09-30T20:36:24.753Z,1002.3
2022-09-30T20:39:24.765Z,1002.3
2022-09-30T20:42:24.777Z,1002.4
2022-09-30T20:45:24.802Z,1002.3
2022-09-30T20:48:24.854Z,1002.3
2022-09-30T20:51:24.819Z,1002.4
2022-09-30T20:54:24.987Z,1002.3
2022-09-30T20:57:24.835Z,1002.3
2022-09-30T21:00:24.854Z,1002.3
2022-09-30T21:03:24.864Z,1002.2
2022-09-30T21:06:24.883Z,1002.3
2022-09-30T21:09:24.861Z,1002.3
2022-09-30T21:12:24.868Z,1002.2
2022-09-30T21:15:24.864Z,1002.2
2022-09-30T21:18:24.869Z,1002.3
2022-09-30T21:21:24.887Z,1002.3
2022-09-30T21:24:24.887Z,1002.2
2022-09-30T21:27:24.865Z,1002.2
2022-09-30T21:30:24.865Z,1002.2
2022-09-30T21:33:24.882Z,1002.2
2022-09-30T21:36:24.867Z,1002.2
2022-09-30T21:39:24.867Z,1002.1
2022-09-30T21:42:24.942Z,1002.1
2022-09-30T21:45:24.910Z,1002.1
2022-09-30T21:48:24.895Z,1002
2022-09-30T21:51:24.871Z,1002
2022-09-30T21:54:24.876Z,1002
2022-09-30T21:57:24.874Z,1001.9
2022-09-30T22:00:24.898Z,1001.9
2022-09-30T22:03:24.882Z,1001.9
2022-09-30T22:06:24.879Z,1001.9
2022-09-30T22:09:24.876Z,1001.8
2022-09-30T22:12:24.880Z,1001.9
2022-09-30T22:15:24.883Z,1001.8
2022-09-30T22:18:24.915Z,1001.9
2022-09-30T22:21:24.887Z,1001.8
2022-09-30T22:24:24.888Z,1001.8
2022-09-30T22:27:24.886Z,1001.7
2022-09-30T22:30:24.887Z,1001.7
2022-09-30T22:33:24.898Z,1001.7
2022-09-30T22:36:24.924Z,1001.7
2022-09-30T22:39:24.892Z,1001.7
2022-09-30T22:42:24.890Z,1001.6
2022-09-30T22:45:24.899Z,1001.6
2022-09-30T22:48:24.926Z,1001.6
2022-09-30T22:51:24.901Z,1001.5
2022-09-30T22:54:24.936Z,1001.5
2022-09-30T22:57:24.905Z,1001.4
2022-09-30T23:00:24.922Z,1001.4
2022-09-30T23:03:24.958Z,1001.4
2022-09-30T23:06:24.917Z,1001.2
2022-09-30T23:09:24.918Z,1001.1
2022-09-30T23:12:24.956Z,1001.2
2022-09-30T23:15:24.930Z,1001.3
2022-09-30T23:18:24.957Z,1001.3
2022-09-30T23:21:24.934Z,1001.2
2022-09-30T23:24:24.934Z,1001.2
2022-09-30T23:27:24.946Z,1001.1
2022-09-30T23:30:25.045Z,1001.2
2022-09-30T23:33:24.963Z,1001.2
2022-09-30T23:36:24.962Z,1001.2
2022-09-30T23:39:24.963Z,1001.1
2022-09-30T23:42:24.967Z,1001.1
2022-09-30T23:45:25.029Z,1001
2022-09-30T23:48:25.104Z,1001
2022-09-30T23:51:24.977Z,1000.9
2022-09-30T23:54:24.984Z,1001
2022-09-30T23:57:24.988Z,1001
